sensor_id;sensor_type;location;lat;lon;timestamp;P1;durP1;ratioP1;P2;durP2;ratioP2
83245;SDS011;73140;46.754;17.714;2024-01-06T00:01:49;2.83;;;2.10;;
83245;SDS011;73140;46.754;17.714;2024-01-06T00:04:15;3.10;;;2.28;;
83245;SDS011;73140;46.754;17.714;2024-01-06T00:06:42;3.50;;;2.20;;
83245;SDS011;73140;46.754;17.714;2024-01-06T00:09:08;3.40;;;2.20;;
83245;SDS011;73140;46.754;17.714;2024-01-06T00:11:34;3.13;;;2.10;;
83245;SDS011;73140;46.754;17.714;2024-01-06T00:14:00;3.03;;;2.13;;
83245;SDS011;73140;46.754;17.714;2024-01-06T00:16:26;2.53;;;2.03;;
83245;SDS011;73140;46.754;17.714;2024-01-06T00:18:52;2.63;;;1.90;;
83245;SDS011;73140;46.754;17.714;2024-01-06T00:21:18;3.03;;;1.95;;
83245;SDS011;73140;46.754;17.714;2024-01-06T00:23:46;3.03;;;1.90;;
83245;SDS011;73140;46.754;17.714;2024-01-06T00:26:12;2.88;;;1.98;;
83245;SDS011;73140;46.754;17.714;2024-01-06T00:28:38;3.38;;;1.92;;
83245;SDS011;73140;46.754;17.714;2024-01-06T00:31:04;3.10;;;1.83;;
83245;SDS011;73140;46.754;17.714;2024-01-06T00:33:31;2.88;;;2.05;;
83245;SDS011;73140;46.754;17.714;2024-01-06T00:35:57;3.22;;;1.80;;
83245;SDS011;73140;46.754;17.714;2024-01-06T00:38:23;3.17;;;1.92;;
83245;SDS011;73140;46.754;17.714;2024-01-06T00:40:51;3.22;;;2.05;;
83245;SDS011;73140;46.754;17.714;2024-01-06T00:43:17;3.22;;;2.00;;
83245;SDS011;73140;46.754;17.714;2024-01-06T00:45:43;3.50;;;2.47;;
83245;SDS011;73140;46.754;17.714;2024-01-06T00:48:09;2.67;;;2.03;;
83245;SDS011;73140;46.754;17.714;2024-01-06T00:50:35;1.95;;;1.67;;
83245;SDS011;73140;46.754;17.714;2024-01-06T00:53:01;2.88;;;1.95;;
83245;SDS011;73140;46.754;17.714;2024-01-06T00:55:27;3.22;;;2.10;;
83245;SDS011;73140;46.754;17.714;2024-01-06T00:57:54;3.72;;;2.25;;
83245;SDS011;73140;46.754;17.714;2024-01-06T01:00:20;3.63;;;2.17;;
83245;SDS011;73140;46.754;17.714;2024-01-06T01:02:48;2.92;;;1.85;;
83245;SDS011;73140;46.754;17.714;2024-01-06T01:05:14;3.47;;;2.35;;
83245;SDS011;73140;46.754;17.714;2024-01-06T01:07:40;3.42;;;2.13;;
83245;SDS011;73140;46.754;17.714;2024-01-06T01:10:06;3.03;;;2.30;;
83245;SDS011;73140;46.754;17.714;2024-01-06T01:12:32;3.15;;;2.20;;
83245;SDS011;73140;46.754;17.714;2024-01-06T01:15:00;3.38;;;2.20;;
83245;SDS011;73140;46.754;17.714;2024-01-06T01:17:26;3.42;;;2.20;;
83245;SDS011;73140;46.754;17.714;2024-01-06T01:19:52;3.92;;;2.28;;
83245;SDS011;73140;46.754;17.714;2024-01-06T01:22:18;2.92;;;2.20;;
83245;SDS011;73140;46.754;17.714;2024-01-06T01:24:44;3.35;;;2.30;;
83245;SDS011;73140;46.754;17.714;2024-01-06T01:27:10;3.40;;;2.22;;
83245;SDS011;73140;46.754;17.714;2024-01-06T01:29:36;3.47;;;2.10;;
83245;SDS011;73140;46.754;17.714;2024-01-06T01:32:04;3.08;;;2.17;;
83245;SDS011;73140;46.754;17.714;2024-01-06T01:34:31;3.42;;;2.22;;
83245;SDS011;73140;46.754;17.714;2024-01-06T01:36:57;3.10;;;2.22;;
83245;SDS011;73140;46.754;17.714;2024-01-06T01:39:23;3.03;;;2.45;;
83245;SDS011;73140;46.754;17.714;2024-01-06T01:41:49;2.60;;;2.00;;
83245;SDS011;73140;46.754;17.714;2024-01-06T01:44:15;3.03;;;2.20;;
83245;SDS011;73140;46.754;17.714;2024-01-06T01:46:41;3.47;;;2.15;;
83245;SDS011;73140;46.754;17.714;2024-01-06T01:49:09;2.83;;;1.90;;
83245;SDS011;73140;46.754;17.714;2024-01-06T01:51:35;3.75;;;2.47;;
83245;SDS011;73140;46.754;17.714;2024-01-06T01:54:02;3.47;;;2.10;;
83245;SDS011;73140;46.754;17.714;2024-01-06T01:56:30;3.05;;;2.05;;
83245;SDS011;73140;46.754;17.714;2024-01-06T01:59:00;4.00;;;2.20;;
83245;SDS011;73140;46.754;17.714;2024-01-06T02:03:56;2.67;;;1.63;;
83245;SDS011;73140;46.754;17.714;2024-01-06T02:06:24;3.97;;;2.30;;
83245;SDS011;73140;46.754;17.714;2024-01-06T02:08:51;2.95;;;2.22;;
83245;SDS011;73140;46.754;17.714;2024-01-06T02:11:17;3.92;;;2.20;;
83245;SDS011;73140;46.754;17.714;2024-01-06T02:13:43;2.85;;;2.05;;
83245;SDS011;73140;46.754;17.714;2024-01-06T02:16:09;3.08;;;2.10;;
83245;SDS011;73140;46.754;17.714;2024-01-06T02:18:35;2.60;;;1.80;;
83245;SDS011;73140;46.754;17.714;2024-01-06T02:21:01;2.70;;;1.90;;
83245;SDS011;73140;46.754;17.714;2024-01-06T02:23:29;3.40;;;2.10;;
83245;SDS011;73140;46.754;17.714;2024-01-06T02:25:56;3.03;;;2.45;;
83245;SDS011;73140;46.754;17.714;2024-01-06T02:28:22;3.97;;;2.85;;
83245;SDS011;73140;46.754;17.714;2024-01-06T02:30:48;3.80;;;2.63;;
83245;SDS011;73140;46.754;17.714;2024-01-06T02:33:14;2.80;;;2.40;;
83245;SDS011;73140;46.754;17.714;2024-01-06T02:35:40;3.92;;;2.88;;
83245;SDS011;73140;46.754;17.714;2024-01-06T02:38:07;4.13;;;2.80;;
83245;SDS011;73140;46.754;17.714;2024-01-06T02:40:35;4.03;;;2.88;;
83245;SDS011;73140;46.754;17.714;2024-01-06T02:43:01;4.43;;;2.67;;
83245;SDS011;73140;46.754;17.714;2024-01-06T02:45:27;3.35;;;2.67;;
83245;SDS011;73140;46.754;17.714;2024-01-06T02:47:53;4.32;;;2.90;;
83245;SDS011;73140;46.754;17.714;2024-01-06T02:50:19;3.80;;;3.00;;
83245;SDS011;73140;46.754;17.714;2024-01-06T02:52:46;5.70;;;3.17;;
83245;SDS011;73140;46.754;17.714;2024-01-06T02:55:12;3.05;;;2.35;;
83245;SDS011;73140;46.754;17.714;2024-01-06T02:57:40;3.42;;;2.75;;
83245;SDS011;73140;46.754;17.714;2024-01-06T03:00:07;3.45;;;2.60;;
83245;SDS011;73140;46.754;17.714;2024-01-06T03:02:33;6.97;;;4.88;;
83245;SDS011;73140;46.754;17.714;2024-01-06T03:05:01;4.13;;;2.95;;
83245;SDS011;73140;46.754;17.714;2024-01-06T03:07:27;3.97;;;2.40;;
83245;SDS011;73140;46.754;17.714;2024-01-06T03:09:53;3.17;;;2.42;;
83245;SDS011;73140;46.754;17.714;2024-01-06T03:12:19;5.10;;;3.20;;
83245;SDS011;73140;46.754;17.714;2024-01-06T03:14:47;4.80;;;3.00;;
83245;SDS011;73140;46.754;17.714;2024-01-06T03:17:13;5.30;;;3.92;;
83245;SDS011;73140;46.754;17.714;2024-01-06T03:19:39;8.00;;;4.40;;
83245;SDS011;73140;46.754;17.714;2024-01-06T03:22:05;6.07;;;4.55;;
83245;SDS011;73140;46.754;17.714;2024-01-06T03:24:31;5.40;;;3.50;;
83245;SDS011;73140;46.754;17.714;2024-01-06T03:26:57;4.43;;;3.00;;
83245;SDS011;73140;46.754;17.714;2024-01-06T03:29:23;3.90;;;2.70;;
83245;SDS011;73140;46.754;17.714;2024-01-06T03:31:51;3.95;;;2.78;;
83245;SDS011;73140;46.754;17.714;2024-01-06T03:34:17;4.15;;;3.00;;
83245;SDS011;73140;46.754;17.714;2024-01-06T03:36:43;3.75;;;2.80;;
83245;SDS011;73140;46.754;17.714;2024-01-06T03:39:09;3.97;;;3.03;;
83245;SDS011;73140;46.754;17.714;2024-01-06T03:41:35;3.53;;;2.90;;
83245;SDS011;73140;46.754;17.714;2024-01-06T03:44:01;4.13;;;3.50;;
83245;SDS011;73140;46.754;17.714;2024-01-06T03:46:28;3.95;;;2.45;;
83245;SDS011;73140;46.754;17.714;2024-01-06T03:48:55;6.03;;;2.95;;
83245;SDS011;73140;46.754;17.714;2024-01-06T03:51:21;4.50;;;3.03;;
83245;SDS011;73140;46.754;17.714;2024-01-06T03:53:47;4.20;;;3.13;;
83245;SDS011;73140;46.754;17.714;2024-01-06T03:56:13;4.63;;;3.40;;
83245;SDS011;73140;46.754;17.714;2024-01-06T03:58:39;4.15;;;3.75;;
83245;SDS011;73140;46.754;17.714;2024-01-06T04:01:05;4.47;;;3.65;;
83245;SDS011;73140;46.754;17.714;2024-01-06T04:03:31;4.82;;;3.88;;
83245;SDS011;73140;46.754;17.714;2024-01-06T04:05:58;5.90;;;4.25;;
83245;SDS011;73140;46.754;17.714;2024-01-06T04:08:25;6.40;;;4.75;;
83245;SDS011;73140;46.754;17.714;2024-01-06T04:10:51;4.45;;;3.67;;
83245;SDS011;73140;46.754;17.714;2024-01-06T04:13:17;5.68;;;3.45;;
83245;SDS011;73140;46.754;17.714;2024-01-06T04:15:43;4.95;;;3.65;;
83245;SDS011;73140;46.754;17.714;2024-01-06T04:18:09;5.38;;;3.90;;
83245;SDS011;73140;46.754;17.714;2024-01-06T04:20:36;5.07;;;4.30;;
83245;SDS011;73140;46.754;17.714;2024-01-06T04:23:03;4.97;;;3.75;;
83245;SDS011;73140;46.754;17.714;2024-01-06T04:25:29;4.55;;;3.40;;
83245;SDS011;73140;46.754;17.714;2024-01-06T04:27:55;4.35;;;3.17;;
83245;SDS011;73140;46.754;17.714;2024-01-06T04:30:21;3.97;;;3.17;;
83245;SDS011;73140;46.754;17.714;2024-01-06T04:32:47;4.32;;;3.47;;
83245;SDS011;73140;46.754;17.714;2024-01-06T04:35:13;4.82;;;3.63;;
83245;SDS011;73140;46.754;17.714;2024-01-06T04:37:40;4.63;;;4.07;;
83245;SDS011;73140;46.754;17.714;2024-01-06T04:40:08;5.00;;;3.95;;
83245;SDS011;73140;46.754;17.714;2024-01-06T04:42:35;4.47;;;3.58;;
83245;SDS011;73140;46.754;17.714;2024-01-06T04:45:01;4.53;;;3.65;;
83245;SDS011;73140;46.754;17.714;2024-01-06T04:47:28;5.00;;;3.85;;
83245;SDS011;73140;46.754;17.714;2024-01-06T04:49:55;5.65;;;4.00;;
83245;SDS011;73140;46.754;17.714;2024-01-06T04:52:21;4.95;;;3.95;;
83245;SDS011;73140;46.754;17.714;2024-01-06T04:54:48;5.20;;;4.03;;
83245;SDS011;73140;46.754;17.714;2024-01-06T04:57:15;5.50;;;4.43;;
83245;SDS011;73140;46.754;17.714;2024-01-06T04:59:41;5.88;;;4.85;;
83245;SDS011;73140;46.754;17.714;2024-01-06T05:02:07;5.75;;;4.45;;
83245;SDS011;73140;46.754;17.714;2024-01-06T05:04:33;5.28;;;4.20;;
83245;SDS011;73140;46.754;17.714;2024-01-06T05:07:00;5.50;;;4.40;;
83245;SDS011;73140;46.754;17.714;2024-01-06T05:09:26;4.80;;;4.00;;
83245;SDS011;73140;46.754;17.714;2024-01-06T05:11:52;5.50;;;4.65;;
83245;SDS011;73140;46.754;17.714;2024-01-06T05:14:19;5.07;;;4.45;;
83245;SDS011;73140;46.754;17.714;2024-01-06T05:16:46;6.32;;;4.95;;
83245;SDS011;73140;46.754;17.714;2024-01-06T05:19:12;5.57;;;4.55;;
83245;SDS011;73140;46.754;17.714;2024-01-06T05:21:44;6.07;;;4.65;;
83245;SDS011;73140;46.754;17.714;2024-01-06T05:24:10;6.68;;;4.68;;
83245;SDS011;73140;46.754;17.714;2024-01-06T05:26:36;5.68;;;5.00;;
83245;SDS011;73140;46.754;17.714;2024-01-06T05:29:02;5.82;;;4.97;;
83245;SDS011;73140;46.754;17.714;2024-01-06T05:31:30;6.53;;;4.93;;
83245;SDS011;73140;46.754;17.714;2024-01-06T05:33:56;6.30;;;5.43;;
83245;SDS011;73140;46.754;17.714;2024-01-06T05:36:22;6.40;;;4.90;;
83245;SDS011;73140;46.754;17.714;2024-01-06T05:38:48;7.20;;;4.97;;
83245;SDS011;73140;46.754;17.714;2024-01-06T05:41:14;5.72;;;4.80;;
83245;SDS011;73140;46.754;17.714;2024-01-06T05:43:40;6.55;;;5.03;;
83245;SDS011;73140;46.754;17.714;2024-01-06T05:46:06;5.47;;;4.60;;
83245;SDS011;73140;46.754;17.714;2024-01-06T05:48:34;6.75;;;5.30;;
83245;SDS011;73140;46.754;17.714;2024-01-06T05:51:00;5.55;;;4.85;;
83245;SDS011;73140;46.754;17.714;2024-01-06T05:53:26;5.95;;;4.75;;
83245;SDS011;73140;46.754;17.714;2024-01-06T05:55:52;7.15;;;5.40;;
83245;SDS011;73140;46.754;17.714;2024-01-06T05:58:18;6.38;;;4.72;;
83245;SDS011;73140;46.754;17.714;2024-01-06T06:00:44;6.22;;;4.95;;
83245;SDS011;73140;46.754;17.714;2024-01-06T06:03:12;5.95;;;4.65;;
83245;SDS011;73140;46.754;17.714;2024-01-06T06:05:39;6.40;;;4.82;;
83245;SDS011;73140;46.754;17.714;2024-01-06T06:08:06;7.75;;;5.60;;
83245;SDS011;73140;46.754;17.714;2024-01-06T06:10:32;5.75;;;5.15;;
83245;SDS011;73140;46.754;17.714;2024-01-06T06:13:06;6.78;;;5.13;;
83245;SDS011;73140;46.754;17.714;2024-01-06T06:15:35;5.95;;;4.80;;
83245;SDS011;73140;46.754;17.714;2024-01-06T06:18:01;5.95;;;4.78;;
83245;SDS011;73140;46.754;17.714;2024-01-06T06:20:28;6.72;;;4.90;;
83245;SDS011;73140;46.754;17.714;2024-01-06T06:22:55;5.75;;;4.80;;
83245;SDS011;73140;46.754;17.714;2024-01-06T06:25:21;5.68;;;4.90;;
83245;SDS011;73140;46.754;17.714;2024-01-06T06:27:47;5.25;;;4.63;;
83245;SDS011;73140;46.754;17.714;2024-01-06T06:30:13;7.55;;;5.72;;
83245;SDS011;73140;46.754;17.714;2024-01-06T06:32:40;6.82;;;5.35;;
83245;SDS011;73140;46.754;17.714;2024-01-06T06:35:06;6.95;;;4.90;;
83245;SDS011;73140;46.754;17.714;2024-01-06T06:37:33;7.10;;;5.30;;
83245;SDS011;73140;46.754;17.714;2024-01-06T06:40:00;7.50;;;5.40;;
83245;SDS011;73140;46.754;17.714;2024-01-06T06:42:27;6.25;;;5.00;;
83245;SDS011;73140;46.754;17.714;2024-01-06T06:44:53;7.40;;;5.53;;
83245;SDS011;73140;46.754;17.714;2024-01-06T06:47:19;6.38;;;4.93;;
83245;SDS011;73140;46.754;17.714;2024-01-06T06:49:45;5.93;;;5.03;;
83245;SDS011;73140;46.754;17.714;2024-01-06T06:52:11;6.50;;;5.22;;
83245;SDS011;73140;46.754;17.714;2024-01-06T06:54:38;8.27;;;5.50;;
83245;SDS011;73140;46.754;17.714;2024-01-06T06:57:05;6.50;;;5.22;;
83245;SDS011;73140;46.754;17.714;2024-01-06T06:59:31;6.93;;;5.75;;
83245;SDS011;73140;46.754;17.714;2024-01-06T07:01:57;6.43;;;5.45;;
83245;SDS011;73140;46.754;17.714;2024-01-06T07:04:23;6.25;;;5.28;;
83245;SDS011;73140;46.754;17.714;2024-01-06T07:06:51;6.90;;;5.13;;
83245;SDS011;73140;46.754;17.714;2024-01-06T07:09:17;6.28;;;4.75;;
83245;SDS011;73140;46.754;17.714;2024-01-06T07:11:43;6.68;;;5.75;;
83245;SDS011;73140;46.754;17.714;2024-01-06T07:14:11;6.63;;;5.22;;
83245;SDS011;73140;46.754;17.714;2024-01-06T07:16:37;6.13;;;5.38;;
83245;SDS011;73140;46.754;17.714;2024-01-06T07:19:03;5.82;;;5.15;;
83245;SDS011;73140;46.754;17.714;2024-01-06T07:21:30;7.53;;;5.28;;
83245;SDS011;73140;46.754;17.714;2024-01-06T07:23:57;7.68;;;5.90;;
83245;SDS011;73140;46.754;17.714;2024-01-06T07:26:23;6.30;;;5.28;;
83245;SDS011;73140;46.754;17.714;2024-01-06T07:28:49;6.40;;;5.32;;
83245;SDS011;73140;46.754;17.714;2024-01-06T07:31:17;7.90;;;5.45;;
83245;SDS011;73140;46.754;17.714;2024-01-06T07:33:43;6.13;;;5.03;;
83245;SDS011;73140;46.754;17.714;2024-01-06T07:36:09;6.20;;;5.22;;
83245;SDS011;73140;46.754;17.714;2024-01-06T07:38:36;6.30;;;5.38;;
83245;SDS011;73140;46.754;17.714;2024-01-06T07:41:02;6.93;;;5.45;;
83245;SDS011;73140;46.754;17.714;2024-01-06T07:43:30;6.93;;;4.60;;
83245;SDS011;73140;46.754;17.714;2024-01-06T07:45:56;6.13;;;5.05;;
83245;SDS011;73140;46.754;17.714;2024-01-06T07:48:23;6.30;;;5.43;;
83245;SDS011;73140;46.754;17.714;2024-01-06T07:50:49;5.85;;;4.75;;
83245;SDS011;73140;46.754;17.714;2024-01-06T07:53:15;6.50;;;5.40;;
83245;SDS011;73140;46.754;17.714;2024-01-06T07:55:41;6.10;;;5.15;;
83245;SDS011;73140;46.754;17.714;2024-01-06T07:58:07;6.95;;;5.30;;
83245;SDS011;73140;46.754;17.714;2024-01-06T08:00:33;7.93;;;6.00;;
83245;SDS011;73140;46.754;17.714;2024-01-06T08:02:59;6.97;;;5.60;;
83245;SDS011;73140;46.754;17.714;2024-01-06T08:05:27;6.50;;;5.40;;
83245;SDS011;73140;46.754;17.714;2024-01-06T08:07:53;6.43;;;5.22;;
83245;SDS011;73140;46.754;17.714;2024-01-06T08:10:19;7.45;;;5.40;;
83245;SDS011;73140;46.754;17.714;2024-01-06T08:12:46;7.75;;;5.53;;
83245;SDS011;73140;46.754;17.714;2024-01-06T08:15:12;6.57;;;5.32;;
83245;SDS011;73140;46.754;17.714;2024-01-06T08:17:38;6.55;;;5.45;;
83245;SDS011;73140;46.754;17.714;2024-01-06T08:20:06;7.05;;;5.90;;
83245;SDS011;73140;46.754;17.714;2024-01-06T08:22:35;7.32;;;5.57;;
83245;SDS011;73140;46.754;17.714;2024-01-06T08:25:00;6.45;;;5.72;;
83245;SDS011;73140;46.754;17.714;2024-01-06T08:27:28;7.80;;;6.03;;
83245;SDS011;73140;46.754;17.714;2024-01-06T08:29:54;8.45;;;6.07;;
83245;SDS011;73140;46.754;17.714;2024-01-06T08:32:20;8.57;;;6.13;;
83245;SDS011;73140;46.754;17.714;2024-01-06T08:34:46;6.35;;;5.35;;
83245;SDS011;73140;46.754;17.714;2024-01-06T08:37:12;7.75;;;5.85;;
83245;SDS011;73140;46.754;17.714;2024-01-06T08:39:41;8.10;;;6.55;;
83245;SDS011;73140;46.754;17.714;2024-01-06T08:42:07;8.32;;;5.80;;
83245;SDS011;73140;46.754;17.714;2024-01-06T08:44:33;7.10;;;5.68;;
83245;SDS011;73140;46.754;17.714;2024-01-06T08:46:59;6.18;;;5.32;;
83245;SDS011;73140;46.754;17.714;2024-01-06T08:49:25;6.07;;;5.22;;
83245;SDS011;73140;46.754;17.714;2024-01-06T08:51:51;7.25;;;5.80;;
83245;SDS011;73140;46.754;17.714;2024-01-06T08:54:19;7.28;;;5.50;;
83245;SDS011;73140;46.754;17.714;2024-01-06T08:56:47;6.32;;;5.45;;
83245;SDS011;73140;46.754;17.714;2024-01-06T08:59:14;7.18;;;5.68;;
83245;SDS011;73140;46.754;17.714;2024-01-06T09:01:40;6.57;;;5.68;;
83245;SDS011;73140;46.754;17.714;2024-01-06T09:04:06;7.68;;;5.93;;
83245;SDS011;73140;46.754;17.714;2024-01-06T09:06:32;7.47;;;6.32;;
83245;SDS011;73140;46.754;17.714;2024-01-06T09:08:58;8.60;;;6.30;;
83245;SDS011;73140;46.754;17.714;2024-01-06T09:11:24;8.32;;;6.65;;
83245;SDS011;73140;46.754;17.714;2024-01-06T09:13:52;8.90;;;7.07;;
83245;SDS011;73140;46.754;17.714;2024-01-06T09:16:18;8.50;;;6.53;;
83245;SDS011;73140;46.754;17.714;2024-01-06T09:18:44;7.60;;;6.25;;
83245;SDS011;73140;46.754;17.714;2024-01-06T09:21:10;7.85;;;6.43;;
83245;SDS011;73140;46.754;17.714;2024-01-06T09:23:36;8.07;;;6.32;;
83245;SDS011;73140;46.754;17.714;2024-01-06T09:26:02;7.88;;;6.60;;
83245;SDS011;73140;46.754;17.714;2024-01-06T09:28:29;8.80;;;7.07;;
83245;SDS011;73140;46.754;17.714;2024-01-06T09:30:56;7.57;;;6.68;;
83245;SDS011;73140;46.754;17.714;2024-01-06T09:33:22;8.00;;;6.45;;
83245;SDS011;73140;46.754;17.714;2024-01-06T09:35:48;8.55;;;7.00;;
83245;SDS011;73140;46.754;17.714;2024-01-06T09:38:15;8.82;;;7.20;;
83245;SDS011;73140;46.754;17.714;2024-01-06T09:40:43;9.20;;;7.15;;
83245;SDS011;73140;46.754;17.714;2024-01-06T09:43:10;9.93;;;7.32;;
83245;SDS011;73140;46.754;17.714;2024-01-06T09:45:37;9.80;;;7.40;;
83245;SDS011;73140;46.754;17.714;2024-01-06T09:48:07;9.13;;;7.30;;
83245;SDS011;73140;46.754;17.714;2024-01-06T09:50:36;9.60;;;7.15;;
83245;SDS011;73140;46.754;17.714;2024-01-06T09:53:05;9.68;;;7.72;;
83245;SDS011;73140;46.754;17.714;2024-01-06T09:55:34;9.13;;;7.80;;
83245;SDS011;73140;46.754;17.714;2024-01-06T09:58:01;7.70;;;6.88;;
83245;SDS011;73140;46.754;17.714;2024-01-06T10:00:27;9.00;;;7.35;;
83245;SDS011;73140;46.754;17.714;2024-01-06T10:02:54;8.10;;;6.85;;
83245;SDS011;73140;46.754;17.714;2024-01-06T10:05:24;9.43;;;7.20;;
83245;SDS011;73140;46.754;17.714;2024-01-06T10:07:53;10.07;;;7.15;;
83245;SDS011;73140;46.754;17.714;2024-01-06T10:10:19;9.02;;;7.75;;
83245;SDS011;73140;46.754;17.714;2024-01-06T10:12:48;9.18;;;7.53;;
83245;SDS011;73140;46.754;17.714;2024-01-06T10:15:18;10.05;;;7.65;;
83245;SDS011;73140;46.754;17.714;2024-01-06T10:17:45;8.48;;;6.88;;
83245;SDS011;73140;46.754;17.714;2024-01-06T10:20:12;9.32;;;7.45;;
83245;SDS011;73140;46.754;17.714;2024-01-06T10:22:41;9.43;;;7.60;;
83245;SDS011;73140;46.754;17.714;2024-01-06T10:25:08;10.52;;;7.47;;
83245;SDS011;73140;46.754;17.714;2024-01-06T10:27:38;10.57;;;7.88;;
83245;SDS011;73140;46.754;17.714;2024-01-06T10:30:05;9.38;;;7.72;;
83245;SDS011;73140;46.754;17.714;2024-01-06T10:32:32;12.25;;;8.77;;
83245;SDS011;73140;46.754;17.714;2024-01-06T10:35:02;10.70;;;8.02;;
83245;SDS011;73140;46.754;17.714;2024-01-06T10:37:31;9.45;;;7.32;;
83245;SDS011;73140;46.754;17.714;2024-01-06T10:40:10;12.90;;;7.68;;
83245;SDS011;73140;46.754;17.714;2024-01-06T10:42:37;9.77;;;7.80;;
83245;SDS011;73140;46.754;17.714;2024-01-06T10:45:05;9.07;;;7.78;;
83245;SDS011;73140;46.754;17.714;2024-01-06T10:50:02;10.23;;;7.22;;
83245;SDS011;73140;46.754;17.714;2024-01-06T10:52:29;9.90;;;7.55;;
83245;SDS011;73140;46.754;17.714;2024-01-06T10:54:57;10.18;;;7.68;;
83245;SDS011;73140;46.754;17.714;2024-01-06T10:57:25;9.98;;;7.95;;
83245;SDS011;73140;46.754;17.714;2024-01-06T10:59:57;11.95;;;8.55;;
83245;SDS011;73140;46.754;17.714;2024-01-06T11:05:12;9.07;;;7.50;;
83245;SDS011;73140;46.754;17.714;2024-01-06T11:07:43;10.43;;;7.65;;
83245;SDS011;73140;46.754;17.714;2024-01-06T11:10:14;10.25;;;7.85;;
83245;SDS011;73140;46.754;17.714;2024-01-06T11:12:43;11.02;;;8.02;;
83245;SDS011;73140;46.754;17.714;2024-01-06T11:15:10;10.32;;;8.35;;
83245;SDS011;73140;46.754;17.714;2024-01-06T11:17:51;9.43;;;7.55;;
83245;SDS011;73140;46.754;17.714;2024-01-06T11:20:26;10.43;;;7.68;;
83245;SDS011;73140;46.754;17.714;2024-01-06T11:22:53;11.57;;;9.15;;
83245;SDS011;73140;46.754;17.714;2024-01-06T11:25:20;10.40;;;8.45;;
83245;SDS011;73140;46.754;17.714;2024-01-06T11:27:48;10.85;;;8.52;;
83245;SDS011;73140;46.754;17.714;2024-01-06T11:30:24;10.60;;;8.07;;
83245;SDS011;73140;46.754;17.714;2024-01-06T11:32:51;10.00;;;8.15;;
83245;SDS011;73140;46.754;17.714;2024-01-06T11:35:19;10.43;;;7.15;;
83245;SDS011;73140;46.754;17.714;2024-01-06T11:37:54;9.38;;;7.40;;
83245;SDS011;73140;46.754;17.714;2024-01-06T11:40:23;9.38;;;7.60;;
83245;SDS011;73140;46.754;17.714;2024-01-06T11:42:58;8.65;;;6.95;;
83245;SDS011;73140;46.754;17.714;2024-01-06T11:45:29;10.30;;;7.55;;
83245;SDS011;73140;46.754;17.714;2024-01-06T11:47:56;8.68;;;7.25;;
83245;SDS011;73140;46.754;17.714;2024-01-06T11:50:25;9.77;;;7.20;;
83245;SDS011;73140;46.754;17.714;2024-01-06T11:52:52;8.98;;;6.90;;
83245;SDS011;73140;46.754;17.714;2024-01-06T11:55:21;8.00;;;6.65;;
83245;SDS011;73140;46.754;17.714;2024-01-06T11:57:48;8.30;;;7.03;;
83245;SDS011;73140;46.754;17.714;2024-01-06T12:00:18;8.73;;;6.90;;
83245;SDS011;73140;46.754;17.714;2024-01-06T12:02:44;8.10;;;6.72;;
83245;SDS011;73140;46.754;17.714;2024-01-06T12:05:14;7.00;;;6.30;;
83245;SDS011;73140;46.754;17.714;2024-01-06T12:07:40;7.72;;;6.57;;
83245;SDS011;73140;46.754;17.714;2024-01-06T12:10:08;8.93;;;7.05;;
83245;SDS011;73140;46.754;17.714;2024-01-06T12:12:37;8.65;;;6.43;;
83245;SDS011;73140;46.754;17.714;2024-01-06T12:15:05;10.40;;;6.93;;
83245;SDS011;73140;46.754;17.714;2024-01-06T12:17:38;8.23;;;6.80;;
83245;SDS011;73140;46.754;17.714;2024-01-06T12:20:05;8.18;;;6.45;;
83245;SDS011;73140;46.754;17.714;2024-01-06T12:22:34;7.47;;;6.13;;
83245;SDS011;73140;46.754;17.714;2024-01-06T12:25:00;7.78;;;6.35;;
83245;SDS011;73140;46.754;17.714;2024-01-06T12:27:30;8.10;;;6.57;;
83245;SDS011;73140;46.754;17.714;2024-01-06T12:29:56;8.68;;;6.43;;
83245;SDS011;73140;46.754;17.714;2024-01-06T12:32:22;7.20;;;6.28;;
83245;SDS011;73140;46.754;17.714;2024-01-06T12:34:52;7.68;;;6.50;;
83245;SDS011;73140;46.754;17.714;2024-01-06T12:37:18;8.98;;;6.78;;
83245;SDS011;73140;46.754;17.714;2024-01-06T12:39:44;8.45;;;6.90;;
83245;SDS011;73140;46.754;17.714;2024-01-06T12:42:14;7.40;;;6.38;;
83245;SDS011;73140;46.754;17.714;2024-01-06T12:44:41;8.98;;;7.70;;
83245;SDS011;73140;46.754;17.714;2024-01-06T12:47:08;7.25;;;5.95;;
83245;SDS011;73140;46.754;17.714;2024-01-06T12:49:34;7.28;;;6.32;;
83245;SDS011;73140;46.754;17.714;2024-01-06T12:52:11;8.13;;;6.75;;
83245;SDS011;73140;46.754;17.714;2024-01-06T12:54:38;8.40;;;6.88;;
83245;SDS011;73140;46.754;17.714;2024-01-06T12:57:08;7.95;;;7.15;;
83245;SDS011;73140;46.754;17.714;2024-01-06T12:59:35;7.97;;;6.90;;
83245;SDS011;73140;46.754;17.714;2024-01-06T13:02:01;8.07;;;6.53;;
83245;SDS011;73140;46.754;17.714;2024-01-06T13:04:27;7.95;;;6.68;;
83245;SDS011;73140;46.754;17.714;2024-01-06T13:06:53;7.68;;;6.40;;
83245;SDS011;73140;46.754;17.714;2024-01-06T13:09:21;7.50;;;6.03;;
83245;SDS011;73140;46.754;17.714;2024-01-06T13:11:49;8.05;;;6.30;;
83245;SDS011;73140;46.754;17.714;2024-01-06T13:14:25;7.03;;;6.13;;
83245;SDS011;73140;46.754;17.714;2024-01-06T13:16:51;8.73;;;6.63;;
83245;SDS011;73140;46.754;17.714;2024-01-06T13:19:18;7.22;;;5.75;;
83245;SDS011;73140;46.754;17.714;2024-01-06T13:21:45;8.55;;;6.40;;
83245;SDS011;73140;46.754;17.714;2024-01-06T13:24:11;7.90;;;6.95;;
83245;SDS011;73140;46.754;17.714;2024-01-06T13:26:39;7.85;;;6.97;;
83245;SDS011;73140;46.754;17.714;2024-01-06T13:29:05;7.32;;;6.40;;
83245;SDS011;73140;46.754;17.714;2024-01-06T13:31:31;8.60;;;6.72;;
83245;SDS011;73140;46.754;17.714;2024-01-06T13:33:58;7.80;;;6.72;;
83245;SDS011;73140;46.754;17.714;2024-01-06T13:36:24;8.10;;;6.38;;
83245;SDS011;73140;46.754;17.714;2024-01-06T13:38:50;8.23;;;6.47;;
83245;SDS011;73140;46.754;17.714;2024-01-06T13:41:16;7.60;;;6.47;;
83245;SDS011;73140;46.754;17.714;2024-01-06T13:43:44;8.27;;;6.80;;
83245;SDS011;73140;46.754;17.714;2024-01-06T13:46:10;8.40;;;6.85;;
83245;SDS011;73140;46.754;17.714;2024-01-06T13:48:36;8.15;;;6.63;;
83245;SDS011;73140;46.754;17.714;2024-01-06T13:51:03;8.10;;;7.30;;
83245;SDS011;73140;46.754;17.714;2024-01-06T13:53:29;7.68;;;6.38;;
83245;SDS011;73140;46.754;17.714;2024-01-06T13:55:58;8.63;;;7.10;;
83245;SDS011;73140;46.754;17.714;2024-01-06T13:58:24;9.10;;;7.43;;
83245;SDS011;73140;46.754;17.714;2024-01-06T14:00:51;7.78;;;6.75;;
83245;SDS011;73140;46.754;17.714;2024-01-06T14:03:18;8.32;;;6.90;;
83245;SDS011;73140;46.754;17.714;2024-01-06T14:05:50;8.20;;;7.15;;
83245;SDS011;73140;46.754;17.714;2024-01-06T14:08:18;8.57;;;6.95;;
83245;SDS011;73140;46.754;17.714;2024-01-06T14:10:45;8.98;;;7.03;;
83245;SDS011;73140;46.754;17.714;2024-01-06T14:13:11;8.50;;;6.95;;
83245;SDS011;73140;46.754;17.714;2024-01-06T14:15:37;10.85;;;7.43;;
83245;SDS011;73140;46.754;17.714;2024-01-06T14:18:05;8.20;;;6.90;;
83245;SDS011;73140;46.754;17.714;2024-01-06T14:20:31;8.32;;;6.90;;
83245;SDS011;73140;46.754;17.714;2024-01-06T14:23:03;8.48;;;6.65;;
83245;SDS011;73140;46.754;17.714;2024-01-06T14:25:29;9.95;;;6.60;;
83245;SDS011;73140;46.754;17.714;2024-01-06T14:27:55;8.75;;;6.22;;
83245;SDS011;73140;46.754;17.714;2024-01-06T14:30:22;7.28;;;6.20;;
83245;SDS011;73140;46.754;17.714;2024-01-06T14:32:50;7.97;;;6.32;;
83245;SDS011;73140;46.754;17.714;2024-01-06T14:35:35;7.95;;;6.53;;
83245;SDS011;73140;46.754;17.714;2024-01-06T14:38:04;7.85;;;6.78;;
83245;SDS011;73140;46.754;17.714;2024-01-06T14:40:31;8.40;;;6.60;;